sensor_id;sensor_type;location;lat;lon;timestamp;pressure;altitude;pressure_sealevel;temperature;humidity
16978;BME280;8605;52.548;4.918;2024-02-26T00:02:13;100160.75;;;4.91;98.38
16978;BME280;8605;52.548;4.918;2024-02-26T00:04:41;100162.69;;;4.89;98.43
16978;BME280;8605;52.548;4.918;2024-02-26T00:07:09;100166.06;;;4.91;98.82
16978;BME280;8605;52.548;4.918;2024-02-26T00:09:37;100168.72;;;4.91;98.30
16978;BME280;8605;52.548;4.918;2024-02-26T00:12:05;100156.63;;;4.87;98.26
16978;BME280;8605;52.548;4.918;2024-02-26T00:14:33;100158.06;;;4.91;99.33
16978;BME280;8605;52.548;4.918;2024-02-26T00:17:02;100180.25;;;4.92;98.69
16978;BME280;8605;52.548;4.918;2024-02-26T00:19:31;100170.41;;;4.92;98.90
16978;BME280;8605;52.548;4.918;2024-02-26T00:21:59;100163.09;;;4.94;99.08
16978;BME280;8605;52.548;4.918;2024-02-26T00:24:27;100169.28;;;4.95;98.31
16978;BME280;8605;52.548;4.918;2024-02-26T00:26:54;100170.13;;;4.95;98.32
16978;BME280;8605;52.548;4.918;2024-02-26T00:29:22;100170.13;;;4.95;98.47
16978;BME280;8605;52.548;4.918;2024-02-26T00:31:49;100177.41;;;4.93;98.46
16978;BME280;8605;52.548;4.918;2024-02-26T00:34:18;100180.06;;;4.93;99.23
16978;BME280;8605;52.548;4.918;2024-02-26T00:36:47;100183.47;;;4.95;99.21
16978;BME280;8605;52.548;4.918;2024-02-26T00:39:15;100188.06;;;4.93;98.71
16978;BME280;8605;52.548;4.918;2024-02-26T00:41:43;100187.53;;;4.90;98.99
16978;BME280;8605;52.548;4.918;2024-02-26T00:44:11;100187.78;;;4.87;99.25
16978;BME280;8605;52.548;4.918;2024-02-26T00:46:39;100191.44;;;4.86;98.92
16978;BME280;8605;52.548;4.918;2024-02-26T00:49:07;100181.19;;;4.81;99.74
16978;BME280;8605;52.548;4.918;2024-02-26T00:51:35;100187.50;;;4.80;99.70
16978;BME280;8605;52.548;4.918;2024-02-26T00:54:04;100190.44;;;4.77;99.77
16978;BME280;8605;52.548;4.918;2024-02-26T00:56:32;100185.13;;;4.77;99.51
16978;BME280;8605;52.548;4.918;2024-02-26T00:59:02;100190.44;;;4.77;99.53
16978;BME280;8605;52.548;4.918;2024-02-26T01:01:30;100192.25;;;4.76;99.55
16978;BME280;8605;52.548;4.918;2024-02-26T01:03:57;100189.59;;;4.76;99.56
16978;BME280;8605;52.548;4.918;2024-02-26T01:06:25;100192.69;;;4.72;99.52
16978;BME280;8605;52.548;4.918;2024-02-26T01:08:53;100191.00;;;4.71;100.00
16978;BME280;8605;52.548;4.918;2024-02-26T01:11:22;100188.03;;;4.64;99.50
16978;BME280;8605;52.548;4.918;2024-02-26T01:13:50;100182.84;;;4.63;99.82
16978;BME280;8605;52.548;4.918;2024-02-26T01:16:22;100185.38;;;4.64;100.00
16978;BME280;8605;52.548;4.918;2024-02-26T01:18:50;100198.69;;;4.64;99.50
16978;BME280;8605;52.548;4.918;2024-02-26T01:21:18;100188.88;;;4.65;99.14
16978;BME280;8605;52.548;4.918;2024-02-26T01:23:46;100194.19;;;4.65;99.50
16978;BME280;8605;52.548;4.918;2024-02-26T01:26:14;100194.47;;;4.62;99.41
16978;BME280;8605;52.548;4.918;2024-02-26T01:28:43;100197.41;;;4.59;99.93
16978;BME280;8605;52.548;4.918;2024-02-26T01:31:11;100201.91;;;4.58;100.00
16978;BME280;8605;52.548;4.918;2024-02-26T01:33:38;100201.91;;;4.58;99.40
16978;BME280;8605;52.548;4.918;2024-02-26T01:36:07;100201.19;;;4.56;99.64
16978;BME280;8605;52.548;4.918;2024-02-26T01:38:36;100211.84;;;4.56;99.44
16978;BME280;8605;52.548;4.918;2024-02-26T01:41:04;100207.47;;;4.55;99.47
16978;BME280;8605;52.548;4.918;2024-02-26T01:43:31;100218.00;;;4.57;100.00
16978;BME280;8605;52.548;4.918;2024-02-26T01:46:00;100218.97;;;4.56;99.37
16978;BME280;8605;52.548;4.918;2024-02-26T01:48:28;100216.59;;;4.53;99.50
16978;BME280;8605;52.548;4.918;2024-02-26T01:50:56;100220.97;;;4.54;99.88
16978;BME280;8605;52.548;4.918;2024-02-26T01:53:25;100224.59;;;4.53;99.36
16978;BME280;8605;52.548;4.918;2024-02-26T01:55:53;100227.25;;;4.53;99.60
16978;BME280;8605;52.548;4.918;2024-02-26T01:58:21;100220.25;;;4.52;99.74
16978;BME280;8605;52.548;4.918;2024-02-26T02:00:49;100220.50;;;4.49;100.00
16978;BME280;8605;52.548;4.918;2024-02-26T02:03:18;100225.13;;;4.47;99.44
16978;BME280;8605;52.548;4.918;2024-02-26T02:05:46;100209.16;;;4.47;100.00
16978;BME280;8605;52.548;4.918;2024-02-26T02:08:14;100217.81;;;4.49;99.06
16978;BME280;8605;52.548;4.918;2024-02-26T02:10:42;100214.47;;;4.47;100.00
16978;BME280;8605;52.548;4.918;2024-02-26T02:13:10;100212.66;;;4.47;99.29
16978;BME280;8605;52.548;4.918;2024-02-26T02:15:38;100210.81;;;4.48;99.23
16978;BME280;8605;52.548;4.918;2024-02-26T02:18:06;100206.03;;;4.41;99.38
16978;BME280;8605;52.548;4.918;2024-02-26T02:20:36;100214.59;;;4.45;99.64
16978;BME280;8605;52.548;4.918;2024-02-26T02:23:04;100225.97;;;4.47;98.97
16978;BME280;8605;52.548;4.918;2024-02-26T02:25:32;100227.06;;;4.45;99.33
16978;BME280;8605;52.548;4.918;2024-02-26T02:28:00;100228.78;;;4.46;99.82
16978;BME280;8605;52.548;4.918;2024-02-26T02:30:29;100227.22;;;4.43;99.19
16978;BME280;8605;52.548;4.918;2024-02-26T02:33:02;100231.56;;;4.44;99.25
16978;BME280;8605;52.548;4.918;2024-02-26T02:35:30;100241.50;;;4.42;99.71
16978;BME280;8605;52.548;4.918;2024-02-26T02:38:00;100247.78;;;4.41;99.56
16978;BME280;8605;52.548;4.918;2024-02-26T02:40:28;100252.44;;;4.39;99.83
16978;BME280;8605;52.548;4.918;2024-02-26T02:42:55;100258.44;;;4.41;99.56
16978;BME280;8605;52.548;4.918;2024-02-26T02:45:23;100255.09;;;4.39;99.27
16978;BME280;8605;52.548;4.918;2024-02-26T02:47:51;100255.09;;;4.39;99.54
16978;BME280;8605;52.548;4.918;2024-02-26T02:50:19;100255.94;;;4.39;99.93
16978;BME280;8605;52.548;4.918;2024-02-26T02:52:47;100257.88;;;4.37;99.13
16978;BME280;8605;52.548;4.918;2024-02-26T02:55:18;100255.22;;;4.37;99.43
16978;BME280;8605;52.548;4.918;2024-02-26T02:57:45;100259.56;;;4.38;99.20
16978;BME280;8605;52.548;4.918;2024-02-26T03:00:14;100265.03;;;4.37;99.63
16978;BME280;8605;52.548;4.918;2024-02-26T03:02:41;100257.44;;;4.32;98.96
16978;BME280;8605;52.548;4.918;2024-02-26T03:05:12;100266.97;;;4.35;99.43
16978;BME280;8605;52.548;4.918;2024-02-26T03:07:40;100259.97;;;4.34;99.15
16978;BME280;8605;52.548;4.918;2024-02-26T03:10:08;100253.22;;;4.30;98.93
16978;BME280;8605;52.548;4.918;2024-02-26T03:12:37;100264.59;;;4.32;99.51
16978;BME280;8605;52.548;4.918;2024-02-26T03:15:06;100260.94;;;4.33;99.11
16978;BME280;8605;52.548;4.918;2024-02-26T03:17:33;100273.13;;;4.35;98.97
16978;BME280;8605;52.548;4.918;2024-02-26T03:20:02;100275.97;;;4.34;98.91
16978;BME280;8605;52.548;4.918;2024-02-26T03:22:31;100282.38;;;4.31;99.01
16978;BME280;8605;52.548;4.918;2024-02-26T03:25:00;100278.88;;;4.31;99.15
16978;BME280;8605;52.548;4.918;2024-02-26T03:27:28;100278.16;;;4.29;99.56
16978;BME280;8605;52.548;4.918;2024-02-26T03:29:58;100281.09;;;4.26;99.86
16978;BME280;8605;52.548;4.918;2024-02-26T03:32:26;100295.81;;;4.30;99.89
16978;BME280;8605;52.548;4.918;2024-02-26T03:34:54;100294.97;;;4.29;99.84
16978;BME280;8605;52.548;4.918;2024-02-26T03:37:22;100293.16;;;4.30;99.22
16978;BME280;8605;52.548;4.918;2024-02-26T03:39:50;100294.84;;;4.31;99.79
16978;BME280;8605;52.548;4.918;2024-02-26T03:42:18;100298.34;;;4.31;100.00
16978;BME280;8605;52.548;4.918;2024-02-26T03:44:46;100299.22;;;4.32;99.71
16978;BME280;8605;52.548;4.918;2024-02-26T03:47:15;100301.16;;;4.30;99.27
16978;BME280;8605;52.548;4.918;2024-02-26T03:49:43;100295.69;;;4.31;99.33
16978;BME280;8605;52.548;4.918;2024-02-26T03:52:11;100299.31;;;4.30;99.60
16978;BME280;8605;52.548;4.918;2024-02-26T03:54:39;100302.84;;;4.31;100.00
16978;BME280;8605;52.548;4.918;2024-02-26T03:57:07;100300.06;;;4.32;99.44
16978;BME280;8605;52.548;4.918;2024-02-26T03:59:35;100303.69;;;4.31;99.38
16978;BME280;8605;52.548;4.918;2024-02-26T04:02:03;100302.72;;;4.32;99.96
16978;BME280;8605;52.548;4.918;2024-02-26T04:04:37;100308.03;;;4.32;99.49
16978;BME280;8605;52.548;4.918;2024-02-26T04:07:05;100316.59;;;4.36;99.40
16978;BME280;8605;52.548;4.918;2024-02-26T04:09:34;100317.56;;;4.35;100.00
16978;BME280;8605;52.548;4.918;2024-02-26T04:12:03;100319.13;;;4.37;99.15
16978;BME280;8605;52.548;4.918;2024-02-26T04:14:31;100321.69;;;4.39;100.00
16978;BME280;8605;52.548;4.918;2024-02-26T04:16:59;100325.31;;;4.38;99.93
16978;BME280;8605;52.548;4.918;2024-02-26T04:19:27;100324.47;;;4.37;99.79
16978;BME280;8605;52.548;4.918;2024-02-26T04:21:56;100326.16;;;4.38;100.00
16978;BME280;8605;52.548;4.918;2024-02-26T04:24:24;100325.72;;;4.33;99.89
16978;BME280;8605;52.548;4.918;2024-02-26T04:26:51;100322.78;;;4.36;99.98
16978;BME280;8605;52.548;4.918;2024-02-26T04:29:19;100329.78;;;4.37;99.53
16978;BME280;8605;52.548;4.918;2024-02-26T04:31:47;100336.94;;;4.37;99.73
16978;BME280;8605;52.548;4.918;2024-02-26T04:34:15;100343.22;;;4.36;100.00
16978;BME280;8605;52.548;4.918;2024-02-26T04:36:43;100335.25;;;4.36;99.48
16978;BME280;8605;52.548;4.918;2024-02-26T04:39:12;100336.50;;;4.32;99.17
16978;BME280;8605;52.548;4.918;2024-02-26T04:41:40;100341.41;;;4.36;100.00
16978;BME280;8605;52.548;4.918;2024-02-26T04:44:08;100346.88;;;4.35;100.00
16978;BME280;8605;52.548;4.918;2024-02-26T04:46:36;100355.69;;;4.35;100.00
16978;BME280;8605;52.548;4.918;2024-02-26T04:49:04;100356.66;;;4.34;99.29
16978;BME280;8605;52.548;4.918;2024-02-26T04:51:32;100360.34;;;4.33;99.08
16978;BME280;8605;52.548;4.918;2024-02-26T04:54:00;100362.28;;;4.31;99.60
16978;BME280;8605;52.548;4.918;2024-02-26T04:56:29;100361.44;;;4.31;99.12
16978;BME280;8605;52.548;4.918;2024-02-26T04:58:57;100363.97;;;4.32;100.00
16978;BME280;8605;52.548;4.918;2024-02-26T05:01:25;100372.94;;;4.31;99.29
16978;BME280;8605;52.548;4.918;2024-02-26T05:03:52;100374.03;;;4.29;99.14
16978;BME280;8605;52.548;4.918;2024-02-26T05:06:21;100379.50;;;4.27;99.77
16978;BME280;8605;52.548;4.918;2024-02-26T05:08:48;100378.78;;;4.25;99.59
16978;BME280;8605;52.548;4.918;2024-02-26T05:11:16;100377.19;;;4.23;99.07
16978;BME280;8605;52.548;4.918;2024-02-26T05:13:47;100368.88;;;4.16;99.92
16978;BME280;8605;52.548;4.918;2024-02-26T05:16:15;100387.72;;;4.24;99.33
16978;BME280;8605;52.548;4.918;2024-02-26T05:18:43;100388.81;;;4.22;99.81
16978;BME280;8605;52.548;4.918;2024-02-26T05:21:11;100392.22;;;4.24;99.68
16978;BME280;8605;52.548;4.918;2024-02-26T05:23:39;100390.50;;;4.23;99.93
16978;BME280;8605;52.548;4.918;2024-02-26T05:26:06;100400.31;;;4.22;99.59
16978;BME280;8605;52.548;4.918;2024-02-26T05:28:34;100396.97;;;4.20;99.52
16978;BME280;8605;52.548;4.918;2024-02-26T05:31:05;100402.41;;;4.19;99.22
16978;BME280;8605;52.548;4.918;2024-02-26T05:33:36;100402.41;;;4.19;99.33
16978;BME280;8605;52.548;4.918;2024-02-26T05:36:04;100401.56;;;4.18;99.31
16978;BME280;8605;52.548;4.918;2024-02-26T05:38:32;100411.25;;;4.19;99.25
16978;BME280;8605;52.548;4.918;2024-02-26T05:41:00;100418.25;;;4.20;99.44
16978;BME280;8605;52.548;4.918;2024-02-26T05:43:28;100424.56;;;4.19;99.37
16978;BME280;8605;52.548;4.918;2024-02-26T05:45:56;100414.88;;;4.18;99.87
16978;BME280;8605;52.548;4.918;2024-02-26T05:48:25;100417.91;;;4.14;99.17
16978;BME280;8605;52.548;4.918;2024-02-26T05:50:53;100434.59;;;4.16;99.54
16978;BME280;8605;52.548;4.918;2024-02-26T05:53:20;100437.41;;;4.14;99.78
16978;BME280;8605;52.548;4.918;2024-02-26T05:55:48;100439.47;;;4.11;98.89
16978;BME280;8605;52.548;4.918;2024-02-26T05:58:18;100445.75;;;4.10;99.63
16978;BME280;8605;52.548;4.918;2024-02-26T06:00:46;100442.25;;;4.09;99.02
16978;BME280;8605;52.548;4.918;2024-02-26T06:03:13;100443.34;;;4.07;99.56
16978;BME280;8605;52.548;4.918;2024-02-26T06:05:43;100451.22;;;4.08;99.75
16978;BME280;8605;52.548;4.918;2024-02-26T06:08:11;100449.53;;;4.07;98.93
16978;BME280;8605;52.548;4.918;2024-02-26T06:10:39;100458.22;;;4.09;98.88
16978;BME280;8605;52.548;4.918;2024-02-26T06:13:08;100457.38;;;4.09;98.97
16978;BME280;8605;52.548;4.918;2024-02-26T06:15:36;100457.63;;;4.06;99.07
16978;BME280;8605;52.548;4.918;2024-02-26T06:18:05;100462.97;;;4.06;99.19
16978;BME280;8605;52.548;4.918;2024-02-26T06:20:33;100471.78;;;4.06;98.48
16978;BME280;8605;52.548;4.918;2024-02-26T06:23:02;100480.63;;;4.07;98.30
16978;BME280;8605;52.548;4.918;2024-02-26T06:25:30;100479.78;;;4.06;99.00
16978;BME280;8605;52.548;4.918;2024-02-26T06:28:01;100485.09;;;4.06;98.82
16978;BME280;8605;52.548;4.918;2024-02-26T06:30:32;100485.34;;;4.03;98.47
16978;BME280;8605;52.548;4.918;2024-02-26T06:33:06;100499.38;;;4.05;98.01
16978;BME280;8605;52.548;4.918;2024-02-26T06:35:34;100496.59;;;4.07;98.48
16978;BME280;8605;52.548;4.918;2024-02-26T06:38:04;100495.75;;;4.06;99.07
16978;BME280;8605;52.548;4.918;2024-02-26T06:40:31;100498.53;;;4.05;98.11
16978;BME280;8605;52.548;4.918;2024-02-26T06:43:00;100495.75;;;4.06;98.17
16978;BME280;8605;52.548;4.918;2024-02-26T06:45:27;100502.88;;;4.06;98.64
16978;BME280;8605;52.548;4.918;2024-02-26T06:47:56;100494.06;;;4.05;98.43
16978;BME280;8605;52.548;4.918;2024-02-26T06:50:24;100501.19;;;4.05;98.63
16978;BME280;8605;52.548;4.918;2024-02-26T06:52:51;100511.72;;;4.06;98.42
16978;BME280;8605;52.548;4.918;2024-02-26T06:55:21;100517.91;;;4.07;98.68
16978;BME280;8605;52.548;4.918;2024-02-26T06:57:49;100516.94;;;4.08;98.64
16978;BME280;8605;52.548;4.918;2024-02-26T07:00:17;100510.03;;;4.05;97.82
16978;BME280;8605;52.548;4.918;2024-02-26T07:02:45;100533.03;;;4.06;98.93
16978;BME280;8605;52.548;4.918;2024-02-26T07:05:13;100533.88;;;4.07;97.64
16978;BME280;8605;52.548;4.918;2024-02-26T07:07:41;100544.41;;;4.08;97.85
16978;BME280;8605;52.548;4.918;2024-02-26T07:10:09;100538.22;;;4.08;98.04
16978;BME280;8605;52.548;4.918;2024-02-26T07:12:40;100535.81;;;4.05;98.25
16978;BME280;8605;52.548;4.918;2024-02-26T07:15:09;100537.38;;;4.07;98.22
16978;BME280;8605;52.548;4.918;2024-02-26T07:17:37;100550.69;;;4.07;98.37
16978;BME280;8605;52.548;4.918;2024-02-26T07:20:09;100549.72;;;4.08;98.52
16978;BME280;8605;52.548;4.918;2024-02-26T07:22:38;100545.38;;;4.07;98.59
16978;BME280;8605;52.548;4.918;2024-02-26T07:25:06;100559.38;;;4.09;97.53
16978;BME280;8605;52.548;4.918;2024-02-26T07:27:35;100560.50;;;4.07;97.70
16978;BME280;8605;52.548;4.918;2024-02-26T07:30:06;100565.44;;;4.11;97.28
16978;BME280;8605;52.548;4.918;2024-02-26T07:32:34;100579.59;;;4.12;97.21
16978;BME280;8605;52.548;4.918;2024-02-26T07:35:03;100579.59;;;4.12;97.18
16978;BME280;8605;52.548;4.918;2024-02-26T07:37:31;100564.47;;;4.12;97.34
16978;BME280;8605;52.548;4.918;2024-02-26T07:40:21;100576.94;;;4.12;97.76
16978;BME280;8605;52.548;4.918;2024-02-26T07:42:49;100576.09;;;4.11;97.76
16978;BME280;8605;52.548;4.918;2024-02-26T07:45:18;100583.84;;;4.14;97.15
16978;BME280;8605;52.548;4.918;2024-02-26T07:47:47;100580.34;;;4.14;96.96
16978;BME280;8605;52.548;4.918;2024-02-26T07:50:15;100582.03;;;4.15;96.46
16978;BME280;8605;52.548;4.918;2024-02-26T07:52:44;100588.31;;;4.14;97.33
16978;BME280;8605;52.548;4.918;2024-02-26T07:55:12;100595.34;;;4.15;96.53
16978;BME280;8605;52.548;4.918;2024-02-26T07:57:42;100594.50;;;4.14;97.33
16978;BME280;8605;52.548;4.918;2024-02-26T08:00:11;100596.16;;;4.15;96.56
16978;BME280;8605;52.548;4.918;2024-02-26T08:02:45;100598.72;;;4.17;96.29
16978;BME280;8605;52.548;4.918;2024-02-26T08:05:13;100604.75;;;4.19;96.80
16978;BME280;8605;52.548;4.918;2024-02-26T08:07:42;100608.28;;;4.19;96.52
16978;BME280;8605;52.548;4.918;2024-02-26T08:10:10;100614.56;;;4.18;95.98
16978;BME280;8605;52.548;4.918;2024-02-26T08:12:38;100617.97;;;4.20;96.25
16978;BME280;8605;52.548;4.918;2024-02-26T08:15:07;100611.91;;;4.18;97.00
16978;BME280;8605;52.548;4.918;2024-02-26T08:17:35;100608.28;;;4.19;96.44
16978;BME280;8605;52.548;4.918;2024-02-26T08:20:06;100620.38;;;4.23;96.97
16978;BME280;8605;52.548;4.918;2024-02-26T08:22:34;100613.13;;;4.14;96.12
16978;BME280;8605;52.548;4.918;2024-02-26T08:25:02;100623.50;;;4.28;96.84
16978;BME280;8605;52.548;4.918;2024-02-26T08:27:34;100626.16;;;4.28;96.52
16978;BME280;8605;52.548;4.918;2024-02-26T08:30:03;100626.91;;;4.30;96.49
16978;BME280;8605;52.548;4.918;2024-02-26T08:32:31;100624.97;;;4.32;97.02
16978;BME280;8605;52.548;4.918;2024-02-26T08:34:59;100636.47;;;4.33;96.07
16978;BME280;8605;52.548;4.918;2024-02-26T08:37:28;100641.66;;;4.34;96.47
16978;BME280;8605;52.548;4.918;2024-02-26T08:39:56;100638.75;;;4.37;96.33
16978;BME280;8605;52.548;4.918;2024-02-26T08:42:30;100646.75;;;4.37;97.42
16978;BME280;8605;52.548;4.918;2024-02-26T08:44:58;100646.63;;;4.39;96.64
16978;BME280;8605;52.548;4.918;2024-02-26T08:47:26;100653.50;;;4.41;96.92
16978;BME280;8605;52.548;4.918;2024-02-26T08:49:55;100652.81;;;4.39;96.25
16978;BME280;8605;52.548;4.918;2024-02-26T08:52:22;100660.53;;;4.42;96.55
16978;BME280;8605;52.548;4.918;2024-02-26T08:54:52;100663.06;;;4.44;95.94
16978;BME280;8605;52.548;4.918;2024-02-26T08:57:20;100660.53;;;4.42;96.02
16978;BME280;8605;52.548;4.918;2024-02-26T08:59:48;100660.41;;;4.44;96.75
16978;BME280;8605;52.548;4.918;2024-02-26T09:02:16;100667.31;;;4.47;96.15
16978;BME280;8605;52.548;4.918;2024-02-26T09:04:46;100660.03;;;4.49;96.64
16978;BME280;8605;52.548;4.918;2024-02-26T09:07:14;100668.66;;;4.52;96.44
16978;BME280;8605;52.548;4.918;2024-02-26T09:09:42;100669.34;;;4.54;96.05
16978;BME280;8605;52.548;4.918;2024-02-26T09:12:13;100666.34;;;4.59;96.32
16978;BME280;8605;52.548;4.918;2024-02-26T09:14:41;100662.72;;;4.60;95.99
16978;BME280;8605;52.548;4.918;2024-02-26T09:17:09;100681.94;;;4.63;95.27
16978;BME280;8605;52.548;4.918;2024-02-26T09:19:37;100679.16;;;4.65;94.88
16978;BME280;8605;52.548;4.918;2024-02-26T09:22:05;100678.91;;;4.68;95.64
16978;BME280;8605;52.548;4.918;2024-02-26T09:24:36;100690.06;;;4.73;95.17
16978;BME280;8605;52.548;4.918;2024-02-26T09:27:04;100697.91;;;4.74;95.24
16978;BME280;8605;52.548;4.918;2024-02-26T09:29:35;100707.84;;;4.83;94.81
16978;BME280;8605;52.548;4.918;2024-02-26T09:32:04;100714.97;;;4.83;94.85
16978;BME280;8605;52.548;4.918;2024-02-26T09:34:32;100718.00;;;4.90;95.01
16978;BME280;8605;52.548;4.918;2024-02-26T09:37:03;100722.81;;;4.96;94.90
16978;BME280;8605;52.548;4.918;2024-02-26T09:39:43;100728.03;;;4.97;94.28
16978;BME280;8605;52.548;4.918;2024-02-26T09:42:16;100725.84;;;5.02;94.82
16978;BME280;8605;52.548;4.918;2024-02-26T09:44:51;100729.94;;;5.06;94.53
16978;BME280;8605;52.548;4.918;2024-02-26T09:47:21;100730.44;;;5.11;94.59
16978;BME280;8605;52.548;4.918;2024-02-26T09:49:51;100725.69;;;5.15;94.36
16978;BME280;8605;52.548;4.918;2024-02-26T09:52:21;100740.09;;;5.12;93.21
16978;BME280;8605;52.548;4.918;2024-02-26T09:54:49;100735.63;;;5.13;93.50
16978;BME280;8605;52.548;4.918;2024-02-26T09:57:17;100744.47;;;5.13;92.92
16978;BME280;8605;52.548;4.918;2024-02-26T09:59:48;100747.13;;;5.25;93.24
16978;BME280;8605;52.548;4.918;2024-02-26T10:02:18;100742.75;;;5.23;93.39
16978;BME280;8605;52.548;4.918;2024-02-26T10:04:47;100754.00;;;5.27;92.91
16978;BME280;8605;52.548;4.918;2024-02-26T10:07:18;100761.91;;;5.29;93.03
16978;BME280;8605;52.548;4.918;2024-02-26T10:09:47;100759.63;;;5.24;93.32
16978;BME280;8605;52.548;4.918;2024-02-26T10:12:16;100771.47;;;5.31;93.11
16978;BME280;8605;52.548;4.918;2024-02-26T10:14:44;100779.34;;;5.33;92.56
16978;BME280;8605;52.548;4.918;2024-02-26T10:17:14;100774.72;;;5.35;93.32
16978;BME280;8605;52.548;4.918;2024-02-26T10:19:42;100780.78;;;5.37;93.01
16978;BME280;8605;52.548;4.918;2024-02-26T10:22:10;100778.81;;;5.39;93.29
16978;BME280;8605;52.548;4.918;2024-02-26T10:24:38;100783.47;;;5.37;92.88
16978;BME280;8605;52.548;4.918;2024-02-26T10:27:06;100784.16;;;5.39;92.26
16978;BME280;8605;52.548;4.918;2024-02-26T10:29:35;100787.56;;;5.41;92.94
16978;BME280;8605;52.548;4.918;2024-02-26T10:32:04;100788.78;;;5.37;92.05
16978;BME280;8605;52.548;4.918;2024-02-26T10:34:35;100802.59;;;5.42;92.90
16978;BME280;8605;52.548;4.918;2024-02-26T10:37:05;100794.09;;;5.48;92.69
16978;BME280;8605;52.548;4.918;2024-02-26T10:39:33;100798.47;;;5.49;93.07
16978;BME280;8605;52.548;4.918;2024-02-26T10:42:03;100805.63;;;5.48;92.76
16978;BME280;8605;52.548;4.918;2024-02-26T10:44:36;100811.81;;;5.49;92.40
16978;BME280;8605;52.548;4.918;2024-02-26T10:47:05;100825.72;;;5.52;92.94
16978;BME280;8605;52.548;4.918;2024-02-26T10:49:35;100812.03;;;5.46;92.61
16978;BME280;8605;52.548;4.918;2024-02-26T10:52:04;100822.88;;;5.44;91.63
16978;BME280;8605;52.548;4.918;2024-02-26T10:54:34;100819.19;;;5.45;91.69
16978;BME280;8605;52.548;4.918;2024-02-26T10:57:04;100828.06;;;5.46;91.71
16978;BME280;8605;52.548;4.918;2024-02-26T10:59:33;100831.34;;;5.49;91.77
16978;BME280;8605;52.548;4.918;2024-02-26T11:02:03;100832.53;;;5.56;92.25
16978;BME280;8605;52.548;4.918;2024-02-26T11:04:31;100829.38;;;5.51;91.79
16978;BME280;8605;52.548;4.918;2024-02-26T11:07:04;100839.53;;;5.57;91.71
16978;BME280;8605;52.548;4.918;2024-02-26T11:09:36;100819.41;;;5.53;92.19
16978;BME280;8605;52.548;4.918;2024-02-26T11:12:09;100833.22;;;5.58;91.33
16978;BME280;8605;52.548;4.918;2024-02-26T11:14:40;100845.94;;;5.66;91.64
16978;BME280;8605;52.548;4.918;2024-02-26T11:17:09;100846.28;;;5.73;92.07
16978;BME280;8605;52.548;4.918;2024-02-26T11:19:39;100841.91;;;5.72;92.09
16978;BME280;8605;52.548;4.918;2024-02-26T11:22:10;100828.97;;;5.67;92.30
16978;BME280;8605;52.548;4.918;2024-02-26T11:24:50;100846.16;;;5.74;92.25
16978;BME280;8605;52.548;4.918;2024-02-26T11:27:19;100847.25;;;5.72;91.58
16978;BME280;8605;52.548;4.918;2024-02-26T11:29:51;100842.88;;;5.71;92.03
16978;BME280;8605;52.548;4.918;2024-02-26T11:32:20;100857.94;;;5.72;91.63
16978;BME280;8605;52.548;4.918;2024-02-26T11:34:49;100857.09;;;5.71;90.64
16978;BME280;8605;52.548;4.918;2024-02-26T11:37:19;100853.22;;;5.75;91.01
16978;BME280;8605;52.548;4.918;2024-02-26T11:39:47;100869.94;;;5.77;91.64
16978;BME280;8605;52.548;4.918;2024-02-26T11:42:16;100868.84;;;5.80;91.77
16978;BME280;8605;52.548;4.918;2024-02-26T11:44:45;100871.63;;;5.78;91.77
16978;BME280;8605;52.548;4.918;2024-02-26T11:47:14;100864.94;;;5.84;91.50
16978;BME280;8605;52.548;4.918;2024-02-26T11:49:48;100872.94;;;5.84;91.37
16978;BME280;8605;52.548;4.918;2024-02-26T11:52:18;100870.16;;;5.85;91.52
16978;BME280;8605;52.548;4.918;2024-02-26T11:54:47;100879.88;;;5.86;91.74
16978;BME280;8605;52.548;4.918;2024-02-26T11:57:26;100876.25;;;5.87;91.62
16978;BME280;8605;52.548;4.918;2024-02-26T11:59:57;100880.47;;;5.90;92.00
16978;BME280;8605;52.548;4.918;2024-02-26T12:02:41;100877.97;;;5.88;91.84
16978;BME280;8605;52.548;4.918;2024-02-26T12:05:11;100885.69;;;5.91;91.71
16978;BME280;8605;52.548;4.918;2024-02-26T12:07:43;100886.53;;;5.92;92.43
16978;BME280;8605;52.548;4.918;2024-02-26T12:10:17;100882.31;;;5.89;91.96
16978;BME280;8605;52.548;4.918;2024-02-26T12:12:49;100886.88;;;5.98;92.04
16978;BME280;8605;52.548;4.918;2024-02-26T12:15:17;100893.34;;;5.96;91.13
16978;BME280;8605;52.548;4.918;2024-02-26T12:17:48;100879.16;;;5.95;90.85
16978;BME280;8605;52.548;4.918;2024-02-26T12:20:18;100898.19;;;5.91;90.47
16978;BME280;8605;52.548;4.918;2024-02-26T12:22:49;100905.13;;;5.93;90.90
16978;BME280;8605;52.548;4.918;2024-02-26T12:25:20;100892.97;;;6.00;91.10
16978;BME280;8605;52.548;4.918;2024-02-26T12:27:48;100890.41;;;5.99;90.82
16978;BME280;8605;52.548;4.918;2024-02-26T12:30:17;100904.38;;;5.91;89.83
16978;BME280;8605;52.548;4.918;2024-02-26T12:32:45;100909.72;;;6.03;90.66
16978;BME280;8605;52.548;4.918;2024-02-26T12:35:15;100911.38;;;6.03;90.77
16978;BME280;8605;52.548;4.918;2024-02-26T12:37:43;100912.38;;;6.03;90.17
16978;BME280;8605;52.548;4.918;2024-02-26T12:40:13;100918.75;;;6.11;90.78
16978;BME280;8605;52.548;4.918;2024-02-26T12:42:41;100926.53;;;6.14;90.57
16978;BME280;8605;52.548;4.918;2024-02-26T12:45:13;100922.63;;;6.18;90.26
16978;BME280;8605;52.548;4.918;2024-02-26T12:47:42;100927.84;;;6.20;89.97
16978;BME280;8605;52.548;4.918;2024-02-26T12:50:12;100930.13;;;6.24;90.24
16978;BME280;8605;52.548;4.918;2024-02-26T12:52:43;100936.94;;;6.28;90.28
16978;BME280;8605;52.548;4.918;2024-02-26T12:55:15;100940.81;;;6.24;90.04
16978;BME280;8605;52.548;4.918;2024-02-26T12:57:45;100948.72;;;6.26;90.18
16978;BME280;8605;52.548;4.918;2024-02-26T13:00:19;100951.38;;;6.26;90.25
16978;BME280;8605;52.548;4.918;2024-02-26T13:02:49;100949.81;;;6.23;90.17
16978;BME280;8605;52.548;4.918;2024-02-26T13:05:18;100964.47;;;6.29;90.19
16978;BME280;8605;52.548;4.918;2024-02-26T13:07:47;100965.22;;;6.31;90.08
16978;BME280;8605;52.548;4.918;2024-02-26T13:10:17;100950.66;;;6.24;89.90
16978;BME280;8605;52.548;4.918;2024-02-26T13:12:45;100972.25;;;6.32;89.96
16978;BME280;8605;52.548;4.918;2024-02-26T13:15:15;100982.47;;;6.27;89.57
16978;BME280;8605;52.548;4.918;2024-02-26T13:17:43;100982.47;;;6.27;89.74
16978;BME280;8605;52.548;4.918;2024-02-26T13:20:11;100974.97;;;6.21;89.90